Rechercher aéroport 
image banner adimage banner ad
image banner ad

LRMIHA - Mihaieni

Situé à Mihaieni, Romania

ICAO - , IATA -

Données fournies par Airmate  

Information générale

Coordonnées: N47°33'5" E22°44'55"
Élévation : 433 feet MSL.
Variation magnétique : 5.11° East
Voir autres Aéroports à Satu Mare

Données opérationnelles

Accessible au public
Heure actuelle UTC:
Heure actuelle locale:
Météo à : LRSM - Satu Mare ( 20 km )
METAR: LRSM 211830Z AUTO 18005KT 9999 BKN060/// 05/01 Q1014
TAF: TAF LRSM 211400Z 2115/2200 18010KT CAVOK
Voir NOTAMs / SUP AIP / TFR affectant cet aéroport [VIEW]
Fréquences de communication: [VIEW]

Pistes:

Identifiant RWYQFULongueur (ft)Largeur (ft)SurfaceLDA (ft)
18186°157582GRASS
36157582GRASS

Coordonnées de l'aéroport

Adresse: Mihaieni Romania

Vue satellite de LRMIHA